createdAt,value
2022-12-08T00:01:42.841Z,13.55
2022-12-08T00:04:10.308Z,14.52
2022-12-08T00:06:57.213Z,13.55
2022-12-08T00:09:39.046Z,14.20
2022-12-08T00:12:16.501Z,12.90
2022-12-08T00:14:45.002Z,13.45
2022-12-08T00:17:12.784Z,13.02
2022-12-08T00:19:39.892Z,13.60
2022-12-08T00:22:07.638Z,13.98
2022-12-08T00:24:38.478Z,13.27
2022-12-08T00:27:06.138Z,13.70
2022-12-08T00:29:33.208Z,13.95
2022-12-08T00:32:00.302Z,14.00
2022-12-08T00:34:27.323Z,13.65
2022-12-08T00:36:54.313Z,13.00
2022-12-08T00:39:21.169Z,14.00
2022-12-08T00:42:06.556Z,13.82
2022-12-08T00:44:33.543Z,13.20
2022-12-08T00:47:00.455Z,13.93
2022-12-08T00:49:27.364Z,13.20
2022-12-08T00:51:54.316Z,13.93
2022-12-08T00:54:22.951Z,12.93
2022-12-08T00:56:49.964Z,13.77
2022-12-08T00:59:16.987Z,13.73
2022-12-08T01:01:44.797Z,14.00
2022-12-08T01:04:15.491Z,14.20
2022-12-08T01:06:42.543Z,13.13
2022-12-08T01:09:09.815Z,13.50
2022-12-08T01:11:37.216Z,13.45
2022-12-08T01:14:04.092Z,14.30
2022-12-08T01:16:33.051Z,13.60
2022-12-08T01:19:00.195Z,14.27
2022-12-08T01:21:27.380Z,15.10
2022-12-08T01:23:54.662Z,13.95
2022-12-08T01:26:21.609Z,14.27
2022-12-08T01:28:48.856Z,13.57
2022-12-08T01:31:18.772Z,14.00
2022-12-08T01:33:45.911Z,14.52
2022-12-08T01:36:25.264Z,12.73
2022-12-08T01:38:52.354Z,13.73
2022-12-08T01:41:20.990Z,13.18
2022-12-08T01:44:11.019Z,13.98
2022-12-08T01:46:44.252Z,13.15
2022-12-08T01:49:28.666Z,13.60
2022-12-08T01:52:09.028Z,13.43
2022-12-08T01:54:40.128Z,14.02
2022-12-08T01:57:19.293Z,13.57
2022-12-08T01:59:48.906Z,13.18
2022-12-08T02:02:15.947Z,13.80
2022-12-08T02:04:42.962Z,13.60
2022-12-08T02:07:10.328Z,13.90
2022-12-08T02:09:37.390Z,14.18
2022-12-08T02:12:04.516Z,14.65
2022-12-08T02:14:32.284Z,14.43
2022-12-08T02:17:33.715Z,14.02
2022-12-08T02:20:27.059Z,14.55
2022-12-08T02:23:06.084Z,14.55
2022-12-08T02:25:51.909Z,14.00
2022-12-08T02:28:47.158Z,13.70
2022-12-08T02:31:37.921Z,13.82
2022-12-08T02:34:22.840Z,12.68
2022-12-08T02:37:05.869Z,13.10
2022-12-08T02:40:13.366Z,13.50
2022-12-08T02:43:09.527Z,12.35
2022-12-08T02:45:49.326Z,13.23
2022-12-08T02:48:16.332Z,13.80
2022-12-08T02:50:43.236Z,13.52
2022-12-08T02:56:08.977Z,13.43
2022-12-08T02:59:13.576Z,12.98
2022-12-08T03:02:07.986Z,14.35
2022-12-08T03:04:53.136Z,13.07
2022-12-08T03:07:20.028Z,13.90
2022-12-08T03:09:54.710Z,12.63
2022-12-08T03:12:24.469Z,12.57
2022-12-08T03:14:53.908Z,13.48
2022-12-08T03:17:22.224Z,14.20
2022-12-08T03:19:49.215Z,14.65
2022-12-08T03:22:17.353Z,14.70
2022-12-08T03:24:45.033Z,12.82
2022-12-08T03:27:19.160Z,14.25
2022-12-08T03:29:46.957Z,14.48
2022-12-08T03:32:42.250Z,15.35
2022-12-08T03:35:11.192Z,14.50
2022-12-08T03:37:38.595Z,14.40
2022-12-08T03:40:07.168Z,14.50
2022-12-08T03:42:34.303Z,14.90
2022-12-08T03:45:01.204Z,15.43
2022-12-08T03:47:28.139Z,16.27
2022-12-08T03:49:55.016Z,15.85
2022-12-08T03:52:21.917Z,15.60
2022-12-08T03:54:48.800Z,14.90
2022-12-08T03:57:15.686Z,15.65
2022-12-08T03:59:42.581Z,15.70
2022-12-08T04:02:09.579Z,15.45
2022-12-08T04:04:36.512Z,15.10
2022-12-08T04:07:03.430Z,14.43
2022-12-08T04:09:30.318Z,15.13
2022-12-08T04:11:57.228Z,15.80
2022-12-08T04:14:24.084Z,14.90
2022-12-08T04:16:50.993Z,14.57
2022-12-08T04:19:17.839Z,14.75
2022-12-08T04:21:44.731Z,15.50
2022-12-08T04:24:11.754Z,13.98
2022-12-08T04:26:38.664Z,16.02
2022-12-08T04:29:05.655Z,14.70
2022-12-08T04:31:32.686Z,15.15
2022-12-08T04:33:59.662Z,15.10
2022-12-08T04:36:26.612Z,14.35
2022-12-08T04:38:54.053Z,14.55
2022-12-08T04:41:20.943Z,15.00
2022-12-08T04:43:47.913Z,14.70
2022-12-08T04:46:14.841Z,15.43
2022-12-08T04:48:41.823Z,14.20
2022-12-08T04:51:14.737Z,14.90
2022-12-08T04:53:46.272Z,15.93
2022-12-08T04:58:41.448Z,14.55
2022-12-08T05:01:08.496Z,15.90
2022-12-08T05:03:35.506Z,14.20
2022-12-08T05:06:02.558Z,15.82
2022-12-08T05:08:29.687Z,15.25
2022-12-08T05:11:07.403Z,16.75
2022-12-08T05:13:34.290Z,16.02
2022-12-08T05:16:23.033Z,15.77
2022-12-08T05:18:50.036Z,16.55
2022-12-08T05:21:16.911Z,17.08
2022-12-08T05:23:43.829Z,16.80
2022-12-08T05:26:10.780Z,16.83
2022-12-08T05:28:42.618Z,16.35
2022-12-08T05:31:11.166Z,16.73
2022-12-08T05:33:38.138Z,15.95
2022-12-08T05:36:05.382Z,16.23
2022-12-08T05:38:32.272Z,15.90
2022-12-08T05:40:59.193Z,16.92
2022-12-08T05:43:26.874Z,16.75
2022-12-08T05:45:53.851Z,15.73
2022-12-08T05:48:20.840Z,16.20
2022-12-08T05:50:48.289Z,16.38
2022-12-08T05:53:16.116Z,15.90
2022-12-08T05:55:43.075Z,16.70
2022-12-08T05:58:16.751Z,15.98
2022-12-08T06:00:43.827Z,17.92
2022-12-08T06:03:14.321Z,15.70
2022-12-08T06:05:42.227Z,16.83
2022-12-08T06:08:09.384Z,15.82
2022-12-08T06:10:37.795Z,15.40
2022-12-08T06:13:04.667Z,14.98
2022-12-08T06:15:31.558Z,15.80
2022-12-08T06:17:58.481Z,15.27
2022-12-08T06:20:25.396Z,16.15
2022-12-08T06:22:52.456Z,14.95
2022-12-08T06:25:19.383Z,15.25
2022-12-08T06:27:46.435Z,15.83
2022-12-08T06:30:13.855Z,14.32
2022-12-08T06:32:40.746Z,15.68
2022-12-08T06:35:08.096Z,15.60
2022-12-08T06:37:35.132Z,15.77
2022-12-08T06:40:02.522Z,15.82
2022-12-08T06:42:44.506Z,15.88
2022-12-08T06:45:12.162Z,15.32
2022-12-08T06:47:39.079Z,16.13
2022-12-08T06:50:07.007Z,15.85
2022-12-08T06:52:37.663Z,16.08
2022-12-08T06:55:08.675Z,15.30
2022-12-08T06:57:35.639Z,15.30
2022-12-08T07:00:03.992Z,14.35
2022-12-08T07:02:31.271Z,15.18
2022-12-08T07:04:58.265Z,16.10
2022-12-08T07:07:25.124Z,14.95
2022-12-08T07:09:52.053Z,15.10
2022-12-08T07:12:18.963Z,15.80
2022-12-08T07:14:45.961Z,15.38
2022-12-08T07:17:13.730Z,14.65
2022-12-08T07:19:40.689Z,15.80
2022-12-08T07:22:07.608Z,15.27
2022-12-08T07:24:34.562Z,15.98
2022-12-08T07:27:01.520Z,14.77
2022-12-08T07:29:28.483Z,14.68
2022-12-08T07:31:55.389Z,14.90
2022-12-08T07:34:22.350Z,14.80
2022-12-08T07:36:49.322Z,15.02
2022-12-08T07:39:16.363Z,14.48
2022-12-08T07:41:43.301Z,14.70
2022-12-08T07:44:11.160Z,14.70
2022-12-08T07:46:38.266Z,15.00
2022-12-08T07:49:05.263Z,14.93
2022-12-08T07:51:32.345Z,14.95
2022-12-08T07:53:59.437Z,14.95
2022-12-08T07:56:26.427Z,15.07
2022-12-08T07:58:53.480Z,15.18
2022-12-08T08:01:25.151Z,15.82
2022-12-08T08:03:52.231Z,14.60
2022-12-08T08:06:19.152Z,15.90
2022-12-08T08:08:46.349Z,15.90
2022-12-08T08:11:20.800Z,15.57
2022-12-08T08:13:49.768Z,15.77
2022-12-08T08:16:16.878Z,15.75
2022-12-08T08:18:43.830Z,15.38
2022-12-08T08:23:57.585Z,15.57
2022-12-08T08:26:24.489Z,16.17
2022-12-08T08:28:51.432Z,15.13
2022-12-08T08:31:18.377Z,16.30
2022-12-08T08:33:45.404Z,15.48
2022-12-08T08:36:12.540Z,16.42
2022-12-08T08:38:40.185Z,17.17
2022-12-08T08:41:11.026Z,16.13
2022-12-08T08:43:38.915Z,16.33
2022-12-08T08:46:06.331Z,17.15
2022-12-08T08:48:33.568Z,16.88
2022-12-08T08:51:09.706Z,16.58
2022-12-08T08:53:36.734Z,16.45
2022-12-08T08:56:05.356Z,16.77
2022-12-08T08:58:32.292Z,16.02
2022-12-08T09:00:59.337Z,17.45
2022-12-08T09:03:26.340Z,16.48
2022-12-08T09:05:53.519Z,16.80
2022-12-08T09:08:20.685Z,15.43
2022-12-08T09:10:47.844Z,15.07
2022-12-08T09:13:14.810Z,15.20
2022-12-08T09:15:41.798Z,16.73
2022-12-08T09:18:08.771Z,15.77
2022-12-08T09:20:35.785Z,17.35
2022-12-08T09:23:02.803Z,16.65
2022-12-08T09:25:29.731Z,15.77
2022-12-08T09:27:56.763Z,16.60
2022-12-08T09:30:23.808Z,16.10
2022-12-08T09:32:50.744Z,16.85
2022-12-08T09:35:17.763Z,16.27
2022-12-08T09:37:44.702Z,16.20
2022-12-08T09:40:15.866Z,17.25
2022-12-08T09:42:58.347Z,16.83
2022-12-08T09:45:25.278Z,16.02
2022-12-08T09:47:55.147Z,15.95
2022-12-08T09:50:35.424Z,16.40
2022-12-08T09:53:21.929Z,15.35
2022-12-08T09:55:56.032Z,16.20
2022-12-08T09:58:27.967Z,15.65
2022-12-08T10:00:55.202Z,15.50
2022-12-08T10:03:27.622Z,15.43
2022-12-08T10:06:32.626Z,14.98
2022-12-08T10:09:03.516Z,16.35
2022-12-08T10:11:37.266Z,16.67
2022-12-08T10:14:25.773Z,15.57
2022-12-08T10:16:53.853Z,15.38
2022-12-08T10:19:23.005Z,15.60
2022-12-08T10:21:50.342Z,16.00
2022-12-08T10:24:34.120Z,16.20
2022-12-08T10:27:01.494Z,16.23
2022-12-08T10:29:28.495Z,15.63
2022-12-08T10:31:57.241Z,15.45
2022-12-08T10:34:24.451Z,16.23
2022-12-08T10:36:58.751Z,16.30
2022-12-08T10:39:35.977Z,15.82
2022-12-08T10:42:23.154Z,17.15
2022-12-08T10:44:54.588Z,16.60
2022-12-08T10:47:23.497Z,18.08
2022-12-08T10:50:17.835Z,17.73
2022-12-08T10:52:44.814Z,18.25
2022-12-08T10:55:19.128Z,18.70
2022-12-08T10:57:46.332Z,18.20
2022-12-08T11:00:18.833Z,18.23
2022-12-08T11:02:57.527Z,18.75
2022-12-08T11:05:31.590Z,18.48
2022-12-08T11:07:59.015Z,17.60
2022-12-08T11:10:37.310Z,17.52
2022-12-08T11:13:06.168Z,16.25
2022-12-08T11:15:38.152Z,16.15
2022-12-08T11:18:29.715Z,17.88
2022-12-08T11:21:07.921Z,16.77
2022-12-08T11:23:35.887Z,17.08
2022-12-08T11:26:26.878Z,17.85
2022-12-08T11:28:54.174Z,16.95
2022-12-08T11:31:52.624Z,16.15
2022-12-08T11:34:37.980Z,15.27
2022-12-08T11:37:05.768Z,16.92
2022-12-08T11:39:34.433Z,15.95
2022-12-08T11:42:02.878Z,17.17
2022-12-08T11:44:51.616Z,16.73
2022-12-08T11:47:34.108Z,16.73
2022-12-08T11:50:19.489Z,15.65
2022-12-08T11:52:49.042Z,16.10
2022-12-08T11:55:37.066Z,16.70
2022-12-08T11:58:17.374Z,15.90
2022-12-08T12:00:44.610Z,16.77
2022-12-08T12:03:23.584Z,17.50
2022-12-08T12:06:55.300Z,17.42
2022-12-08T12:09:24.453Z,17.80
2022-12-08T12:12:19.252Z,16.67
2022-12-08T12:15:08.237Z,17.25
2022-12-08T12:17:50.640Z,17.65
2022-12-08T12:20:48.259Z,17.83
2022-12-08T12:23:17.244Z,16.98
2022-12-08T12:26:00.386Z,16.40
2022-12-08T12:28:31.499Z,17.15
2022-12-08T12:31:09.721Z,17.13
2022-12-08T12:33:37.006Z,16.02
2022-12-08T12:36:06.370Z,15.85
2022-12-08T12:38:56.917Z,15.95
2022-12-08T12:41:51.438Z,16.67
2022-12-08T12:44:18.721Z,16.15
2022-12-08T12:46:51.117Z,16.35
2022-12-08T12:49:44.030Z,16.67
2022-12-08T12:52:16.904Z,17.40
2022-12-08T12:55:09.913Z,16.40
2022-12-08T12:57:49.679Z,15.52
2022-12-08T13:00:21.379Z,16.20
2022-12-08T13:02:51.739Z,15.82
2022-12-08T13:05:27.071Z,15.45
2022-12-08T13:08:08.064Z,15.27
2022-12-08T13:10:40.526Z,15.93
2022-12-08T13:13:11.490Z,15.30
2022-12-08T13:15:55.224Z,16.45
2022-12-08T13:18:41.878Z,15.15
2022-12-08T13:21:10.497Z,15.60
2022-12-08T13:23:37.568Z,14.45
2022-12-08T13:26:27.959Z,15.98
2022-12-08T13:29:04.147Z,15.07
2022-12-08T13:31:38.101Z,14.73
2022-12-08T13:34:12.612Z,14.40
2022-12-08T13:36:42.318Z,15.90
2022-12-08T13:39:15.929Z,14.95
2022-12-08T13:41:44.676Z,15.52
2022-12-08T13:47:34.929Z,14.82
2022-12-08T13:58:37.943Z,13.30
2022-12-08T14:01:12.272Z,13.38
2022-12-08T14:06:51.817Z,13.05
2022-12-08T14:09:27.346Z,12.13
2022-12-08T14:12:17.867Z,10.45
2022-12-08T14:15:14.803Z,10.55
2022-12-08T14:17:44.781Z,8.98
2022-12-08T14:20:23.914Z,9.30
2022-12-08T14:22:51.818Z,8.35
2022-12-08T14:25:18.900Z,8.90
2022-12-08T14:27:46.301Z,8.70
2022-12-08T14:30:40.210Z,7.72
2022-12-08T14:33:13.976Z,7.95
2022-12-08T14:35:43.114Z,7.65
2022-12-08T14:38:32.710Z,8.00
2022-12-08T14:41:10.396Z,7.68
2022-12-08T14:43:43.293Z,7.40
2022-12-08T14:46:21.608Z,7.57
2022-12-08T14:48:55.230Z,7.93
2022-12-08T14:51:31.073Z,7.82
2022-12-08T14:54:14.073Z,7.93
2022-12-08T14:56:58.044Z,7.70
2022-12-08T14:59:33.744Z,7.85
2022-12-08T15:02:29.339Z,8.50
2022-12-08T15:04:59.699Z,7.47
2022-12-08T15:07:28.481Z,9.02
2022-12-08T15:10:17.454Z,7.93
2022-12-08T15:13:21.135Z,8.18
2022-12-08T15:15:55.367Z,8.25
2022-12-08T15:18:39.467Z,9.30
2022-12-08T15:21:10.372Z,9.40
2022-12-08T15:23:42.634Z,8.77
2022-12-08T15:26:10.444Z,8.85
2022-12-08T15:28:37.425Z,9.18
2022-12-08T15:31:04.451Z,8.63
2022-12-08T15:33:31.584Z,8.48
2022-12-08T15:35:58.661Z,9.48
2022-12-08T15:38:28.773Z,8.73
2022-12-08T15:40:56.578Z,8.93
2022-12-08T15:43:23.592Z,8.80
2022-12-08T15:45:59.853Z,9.25
2022-12-08T15:48:30.495Z,9.27
2022-12-08T15:50:57.572Z,9.43
2022-12-08T15:53:24.645Z,8.98
2022-12-08T15:56:26.565Z,9.82
2022-12-08T15:58:53.637Z,9.00
2022-12-08T16:01:21.841Z,9.55
2022-12-08T16:09:39.251Z,8.63
2022-12-08T16:12:35.538Z,8.75
2022-12-08T16:18:01.656Z,7.47
2022-12-08T16:21:05.470Z,8.02
2022-12-08T16:23:34.651Z,8.80
2022-12-08T16:26:23.868Z,8.30
2022-12-08T16:28:54.691Z,8.25
2022-12-08T16:31:23.359Z,7.90
2022-12-08T16:33:50.508Z,9.45
2022-12-08T16:36:17.490Z,8.90
2022-12-08T16:38:44.467Z,10.90
2022-12-08T16:41:35.708Z,12.82
2022-12-08T16:44:03.557Z,11.38
2022-12-08T16:46:30.575Z,10.55
2022-12-08T16:48:59.082Z,11.32
2022-12-08T16:51:27.340Z,11.18
2022-12-08T16:53:55.698Z,10.45
2022-12-08T16:56:28.813Z,9.50
2022-12-08T16:58:59.130Z,10.77
2022-12-08T17:01:26.135Z,11.05
2022-12-08T17:04:22.502Z,10.18
2022-12-08T17:06:40.124Z,9.98
2022-12-08T17:09:07.007Z,10.50
2022-12-08T17:11:39.064Z,10.98
2022-12-08T17:14:09.236Z,10.73
2022-12-08T17:16:36.585Z,10.80
2022-12-08T17:19:03.902Z,11.27
2022-12-08T17:21:30.805Z,11.18
2022-12-08T17:23:57.835Z,12.07
2022-12-08T17:26:25.004Z,11.80
2022-12-08T17:29:00.636Z,13.20
2022-12-08T17:31:30.154Z,11.65
2022-12-08T17:34:01.829Z,10.77
2022-12-08T17:36:28.798Z,11.77
2022-12-08T17:38:56.868Z,12.35
2022-12-08T17:41:23.849Z,11.50
2022-12-08T17:43:50.780Z,12.07
2022-12-08T17:46:19.074Z,11.23
2022-12-08T17:48:46.180Z,11.00
2022-12-08T17:51:13.146Z,11.48
2022-12-08T17:53:40.835Z,10.68
2022-12-08T17:56:14.497Z,11.30
2022-12-08T17:58:41.440Z,11.50
2022-12-08T18:01:09.836Z,11.55
2022-12-08T18:03:37.160Z,11.40
2022-12-08T18:06:08.379Z,12.75
2022-12-08T18:08:35.621Z,11.68
2022-12-08T18:11:03.275Z,12.23
2022-12-08T18:13:30.227Z,15.82
2022-12-08T18:15:57.472Z,13.70
2022-12-08T18:18:24.377Z,14.80
2022-12-08T18:20:51.295Z,13.95
2022-12-08T18:23:18.774Z,15.40
2022-12-08T18:25:45.947Z,15.13
2022-12-08T18:28:12.822Z,16.88
2022-12-08T18:30:40.082Z,15.10
2022-12-08T18:33:07.619Z,16.52
2022-12-08T18:35:34.845Z,15.75
2022-12-08T18:38:01.830Z,16.38
2022-12-08T18:40:28.794Z,15.80
2022-12-08T18:42:55.997Z,15.38
2022-12-08T18:45:23.042Z,15.02
2022-12-08T18:47:50.616Z,15.93
2022-12-08T18:50:17.642Z,16.25
2022-12-08T18:52:45.556Z,16.42
2022-12-08T18:55:12.751Z,15.35
2022-12-08T18:57:40.480Z,15.45
2022-12-08T19:00:08.623Z,15.77
2022-12-08T19:02:36.822Z,15.77
2022-12-08T19:05:03.958Z,16.52
2022-12-08T19:07:31.001Z,16.90
2022-12-08T19:09:59.288Z,16.08
2022-12-08T19:12:26.208Z,17.33
2022-12-08T19:14:53.144Z,17.15
2022-12-08T19:17:21.043Z,17.20
2022-12-08T19:19:47.944Z,17.67
2022-12-08T19:22:14.868Z,17.83
2022-12-08T19:24:42.098Z,18.13
2022-12-08T19:27:09.128Z,17.80
2022-12-08T19:29:36.072Z,16.85
2022-12-08T19:32:05.243Z,17.23
2022-12-08T19:34:32.163Z,18.00
2022-12-08T19:36:59.084Z,16.48
2022-12-08T19:39:44.531Z,16.65
2022-12-08T19:42:37.746Z,17.17
2022-12-08T19:45:17.356Z,16.95
2022-12-08T19:47:44.716Z,16.40
2022-12-08T19:50:31.261Z,17.02
2022-12-08T19:52:58.443Z,16.73
2022-12-08T19:55:25.655Z,15.90
2022-12-08T19:57:52.861Z,15.82
2022-12-08T20:00:20.375Z,14.95
2022-12-08T20:02:47.704Z,16.08
2022-12-08T20:05:15.039Z,15.52
2022-12-08T20:07:42.080Z,17.08
2022-12-08T20:10:16.466Z,15.95
2022-12-08T20:12:43.420Z,15.45
2022-12-08T20:15:10.733Z,16.50
2022-12-08T20:17:38.458Z,16.73
2022-12-08T20:20:07.616Z,16.52
2022-12-08T20:22:35.139Z,17.63
2022-12-08T20:25:02.854Z,17.45
2022-12-08T20:27:29.874Z,17.30
2022-12-08T20:29:56.762Z,17.55
2022-12-08T20:32:26.417Z,17.55
2022-12-08T20:34:53.530Z,17.92
2022-12-08T20:37:20.484Z,18.13
2022-12-08T20:39:47.404Z,19.02
2022-12-08T20:42:14.447Z,18.42
2022-12-08T20:44:44.373Z,18.90
2022-12-08T20:47:12.576Z,18.08
2022-12-08T20:49:39.719Z,17.73
2022-12-08T20:52:06.723Z,17.98
2022-12-08T20:54:33.828Z,18.08
2022-12-08T20:57:00.857Z,19.10
2022-12-08T20:59:28.034Z,17.63
2022-12-08T21:01:55.112Z,18.40
2022-12-08T21:04:23.239Z,18.20
2022-12-08T21:06:50.359Z,18.88
2022-12-08T21:09:17.342Z,18.70
2022-12-08T21:11:44.789Z,17.92
2022-12-08T21:14:11.930Z,19.55
2022-12-08T21:16:38.944Z,19.63
2022-12-08T21:19:06.355Z,18.98
2022-12-08T21:21:33.519Z,17.90
2022-12-08T21:24:01.163Z,19.15
2022-12-08T21:26:28.838Z,17.48
2022-12-08T21:28:58.506Z,20.55
2022-12-08T21:31:31.910Z,18.10
2022-12-08T21:33:59.844Z,18.73
2022-12-08T21:36:26.880Z,17.88
2022-12-08T21:38:55.246Z,19.20
2022-12-08T21:41:44.336Z,18.17
2022-12-08T21:44:15.305Z,17.75
2022-12-08T21:46:42.728Z,19.20
2022-12-08T21:49:09.880Z,18.15
2022-12-08T21:51:41.851Z,18.17
2022-12-08T21:54:15.013Z,18.48
2022-12-08T21:56:45.728Z,18.00
2022-12-08T21:59:12.915Z,19.27
2022-12-08T22:01:40.141Z,18.35
2022-12-08T22:04:07.464Z,18.80
2022-12-08T22:06:34.628Z,19.02
2022-12-08T22:09:01.734Z,19.10
2022-12-08T22:11:28.946Z,19.27
2022-12-08T22:13:56.086Z,19.70
2022-12-08T22:16:23.331Z,19.45
2022-12-08T22:18:50.986Z,18.93
2022-12-08T22:21:18.102Z,20.10
2022-12-08T22:23:45.580Z,19.40
2022-12-08T22:26:13.116Z,19.27
2022-12-08T22:28:41.119Z,19.53
2022-12-08T22:31:10.028Z,20.47
2022-12-08T22:33:37.953Z,20.13
2022-12-08T22:36:10.638Z,19.80
2022-12-08T22:38:38.344Z,19.90
2022-12-08T22:41:05.857Z,18.70
2022-12-08T22:43:33.265Z,18.97
2022-12-08T22:46:00.380Z,19.10
2022-12-08T22:48:27.421Z,18.90
2022-12-08T22:51:00.767Z,19.17
2022-12-08T22:53:28.006Z,18.70
2022-12-08T22:55:55.013Z,22.48
2022-12-08T22:58:22.306Z,40.85
2022-12-08T23:00:49.635Z,37.78
2022-12-08T23:03:16.660Z,28.60
2022-12-08T23:05:44.007Z,25.87
2022-12-08T23:08:13.427Z,26.17
2022-12-08T23:10:41.022Z,22.77
2022-12-08T23:13:08.189Z,32.67
2022-12-08T23:15:35.202Z,28.48
2022-12-08T23:18:02.278Z,22.17
2022-12-08T23:20:29.332Z,21.60
2022-12-08T23:22:56.336Z,23.10
2022-12-08T23:25:23.430Z,22.30
2022-12-08T23:27:50.374Z,23.05
2022-12-08T23:30:17.536Z,23.97
2022-12-08T23:32:44.667Z,22.07
2022-12-08T23:35:11.807Z,21.23
2022-12-08T23:37:38.788Z,17.80
2022-12-08T23:40:07.054Z,18.52
2022-12-08T23:42:34.271Z,18.50
2022-12-08T23:45:01.382Z,17.75
2022-12-08T23:47:28.423Z,18.67
2022-12-08T23:49:55.676Z,17.93
2022-12-08T23:52:22.556Z,18.13
2022-12-08T23:54:54.634Z,17.40
2022-12-08T23:57:21.787Z,17.23
2022-12-08T23:59:48.682Z,17.60
